createdAt,value
2022-10-17T00:01:40.868Z,100.00
2022-10-17T00:04:15.231Z,100.00
2022-10-17T00:06:48.007Z,100.00
2022-10-17T00:09:20.839Z,100.00
2022-10-17T00:11:53.638Z,100.00
2022-10-17T00:14:26.592Z,100.00
2022-10-17T00:16:59.437Z,100.00
2022-10-17T00:19:33.647Z,100.00
2022-10-17T00:22:06.399Z,100.00
2022-10-17T00:24:39.226Z,100.00
2022-10-17T00:27:12.006Z,100.00
2022-10-17T00:29:45.141Z,100.00
2022-10-17T00:32:18.060Z,100.00
2022-10-17T00:34:52.257Z,100.00
2022-10-17T00:37:25.533Z,100.00
2022-10-17T00:39:58.372Z,100.00
2022-10-17T00:42:31.460Z,100.00
2022-10-17T00:45:22.298Z,100.00
2022-10-17T00:47:59.902Z,100.00
2022-10-17T00:50:35.555Z,100.00
2022-10-17T00:53:10.582Z,100.00
2022-10-17T00:55:48.908Z,100.00
2022-10-17T00:58:22.610Z,100.00
2022-10-17T01:00:55.473Z,100.00
2022-10-17T01:03:28.620Z,100.00
2022-10-17T01:06:02.937Z,100.00
2022-10-17T01:08:36.231Z,100.00
2022-10-17T01:11:22.652Z,100.00
2022-10-17T01:14:04.171Z,100.00
2022-10-17T01:16:45.725Z,100.00
2022-10-17T01:19:38.871Z,100.00
2022-10-17T01:22:19.780Z,100.00
2022-10-17T01:25:24.674Z,100.00
2022-10-17T01:28:19.890Z,100.00
2022-10-17T01:31:09.010Z,100.00
2022-10-17T01:33:54.892Z,100.00
2022-10-17T01:36:39.242Z,100.00
2022-10-17T01:39:20.193Z,100.00
2022-10-17T01:42:00.860Z,100.00
2022-10-17T01:44:38.829Z,100.00
2022-10-17T01:47:18.633Z,100.00
2022-10-17T01:49:55.032Z,100.00
2022-10-17T01:52:33.848Z,100.00
2022-10-17T01:55:12.421Z,100.00
2022-10-17T01:57:50.972Z,100.00
2022-10-17T02:00:26.224Z,100.00
2022-10-17T02:03:05.752Z,100.00
2022-10-17T02:05:41.343Z,100.00
2022-10-17T02:08:14.795Z,100.00
2022-10-17T02:10:56.138Z,100.00
2022-10-17T02:13:41.247Z,100.00
2022-10-17T02:16:25.694Z,100.00
2022-10-17T02:19:19.400Z,100.00
2022-10-17T02:22:02.999Z,100.00
2022-10-17T02:24:46.617Z,100.00
2022-10-17T02:27:30.555Z,100.00
2022-10-17T02:30:10.104Z,100.00
2022-10-17T02:32:50.253Z,100.00
2022-10-17T02:35:29.290Z,100.00
2022-10-17T02:38:05.747Z,100.00
2022-10-17T02:40:41.035Z,100.00
2022-10-17T02:43:14.858Z,100.00
2022-10-17T02:45:48.620Z,100.00
2022-10-17T02:48:29.253Z,100.00
2022-10-17T02:51:11.154Z,100.00
2022-10-17T02:53:54.718Z,100.00
2022-10-17T02:56:30.442Z,100.00
2022-10-17T02:59:04.658Z,100.00
2022-10-17T03:01:38.012Z,100.00
2022-10-17T03:04:13.220Z,100.00
2022-10-17T03:06:48.874Z,100.00
2022-10-17T03:09:21.678Z,100.00
2022-10-17T03:11:54.473Z,100.00
2022-10-17T03:14:27.320Z,100.00
2022-10-17T03:17:00.129Z,100.00
2022-10-17T03:19:32.974Z,100.00
2022-10-17T03:22:07.183Z,100.00
2022-10-17T03:24:39.975Z,100.00
2022-10-17T03:27:13.013Z,100.00
2022-10-17T03:29:45.840Z,100.00
2022-10-17T03:32:18.654Z,100.00
2022-10-17T03:34:51.482Z,100.00
2022-10-17T03:37:25.784Z,100.00
2022-10-17T03:39:58.793Z,100.00
2022-10-17T03:42:32.914Z,100.00
2022-10-17T03:45:06.574Z,100.00
2022-10-17T03:47:39.362Z,100.00
2022-10-17T03:50:12.473Z,100.00
2022-10-17T03:52:49.885Z,100.00
2022-10-17T03:55:22.698Z,100.00
2022-10-17T03:57:55.472Z,100.00
2022-10-17T04:00:28.282Z,100.00
2022-10-17T04:03:01.092Z,100.00
2022-10-17T04:05:33.894Z,100.00
2022-10-17T04:08:08.236Z,100.00
2022-10-17T04:10:41.074Z,100.00
2022-10-17T04:13:13.860Z,100.00
2022-10-17T04:15:55.397Z,100.00
2022-10-17T04:18:28.886Z,100.00
2022-10-17T04:21:02.512Z,100.00
2022-10-17T04:23:36.922Z,100.00
2022-10-17T04:26:09.748Z,100.00
2022-10-17T04:28:42.536Z,100.00
2022-10-17T04:31:16.256Z,100.00
2022-10-17T04:33:49.949Z,100.00
2022-10-17T04:36:23.375Z,100.00
2022-10-17T04:38:57.570Z,100.00
2022-10-17T04:41:30.383Z,100.00
2022-10-17T04:44:03.800Z,100.00
2022-10-17T04:46:36.624Z,100.00
2022-10-17T04:49:09.901Z,100.00
2022-10-17T04:51:42.710Z,100.00
2022-10-17T04:54:17.137Z,100.00
2022-10-17T04:56:49.943Z,100.00
2022-10-17T04:59:22.700Z,100.00
2022-10-17T05:01:55.507Z,100.00
2022-10-17T05:04:28.357Z,100.00
2022-10-17T05:07:01.178Z,100.00
2022-10-17T05:09:35.362Z,100.00
2022-10-17T05:12:10.305Z,100.00
2022-10-17T05:14:43.343Z,100.00
2022-10-17T05:17:16.157Z,100.00
2022-10-17T05:19:48.982Z,100.00
2022-10-17T05:22:21.790Z,100.00
2022-10-17T05:24:56.047Z,100.00
2022-10-17T05:27:28.835Z,100.00
2022-10-17T05:30:01.620Z,100.00
2022-10-17T05:32:34.437Z,100.00
2022-10-17T05:35:08.217Z,100.00
2022-10-17T05:37:41.022Z,100.00
2022-10-17T05:40:15.503Z,100.00
2022-10-17T05:42:48.771Z,100.00
2022-10-17T05:45:21.565Z,100.00
2022-10-17T05:47:54.372Z,100.00
2022-10-17T05:50:27.168Z,100.00
2022-10-17T05:52:59.944Z,100.00
2022-10-17T05:55:34.105Z,100.00
2022-10-17T05:58:06.882Z,100.00
2022-10-17T06:00:39.652Z,100.00
2022-10-17T06:03:13.559Z,100.00
2022-10-17T06:05:47.570Z,100.00
2022-10-17T06:08:20.468Z,100.00
2022-10-17T06:10:54.653Z,100.00
2022-10-17T06:13:27.519Z,100.00
2022-10-17T06:16:00.356Z,100.00
2022-10-17T06:18:33.860Z,100.00
2022-10-17T06:21:08.998Z,100.00
2022-10-17T06:23:41.861Z,100.00
2022-10-17T06:26:16.243Z,100.00
2022-10-17T06:28:49.081Z,100.00
2022-10-17T06:31:21.933Z,100.00
2022-10-17T06:33:54.774Z,100.00
2022-10-17T06:36:27.999Z,100.00
2022-10-17T06:39:01.125Z,100.00
2022-10-17T06:41:35.294Z,100.00
2022-10-17T06:44:11.246Z,100.00
2022-10-17T06:46:44.065Z,100.00
2022-10-17T06:49:16.866Z,100.00
2022-10-17T06:51:49.820Z,100.00
2022-10-17T06:54:22.707Z,100.00
2022-10-17T06:56:57.219Z,100.00
2022-10-17T06:59:30.116Z,100.00
2022-10-17T07:02:03.579Z,100.00
2022-10-17T07:04:36.363Z,100.00
2022-10-17T07:07:09.506Z,100.00
2022-10-17T07:09:42.315Z,100.00
2022-10-17T07:12:16.493Z,100.00
2022-10-17T07:14:50.497Z,100.00
2022-10-17T07:17:23.600Z,100.00
2022-10-17T07:19:57.060Z,100.00
2022-10-17T07:22:29.880Z,100.00
2022-10-17T07:25:03.630Z,100.00
2022-10-17T07:27:38.363Z,100.00
2022-10-17T07:30:13.713Z,100.00
2022-10-17T07:32:47.617Z,100.00
2022-10-17T07:35:21.616Z,100.00
2022-10-17T07:37:54.876Z,100.00
2022-10-17T07:40:28.749Z,100.00
2022-10-17T07:43:03.471Z,100.00
2022-10-17T07:45:36.396Z,100.00
2022-10-17T07:48:09.156Z,100.00
2022-10-17T07:50:41.941Z,100.00
2022-10-17T07:53:14.953Z,100.00
2022-10-17T07:55:49.724Z,100.00
2022-10-17T07:58:24.072Z,100.00
2022-10-17T08:00:57.062Z,100.00
2022-10-17T08:03:30.136Z,100.00
2022-10-17T08:06:04.032Z,100.00
2022-10-17T08:08:36.833Z,100.00
2022-10-17T08:11:11.668Z,100.00
2022-10-17T08:13:45.880Z,100.00
2022-10-17T08:16:18.691Z,100.00
2022-10-17T08:18:51.485Z,100.00
2022-10-17T08:21:24.319Z,100.00
2022-10-17T08:23:57.545Z,100.00
2022-10-17T08:26:30.726Z,100.00
2022-10-17T08:29:04.965Z,100.00
2022-10-17T08:31:37.782Z,100.00
2022-10-17T08:34:10.561Z,100.00
2022-10-17T08:36:43.500Z,100.00
2022-10-17T08:39:16.278Z,100.00
2022-10-17T08:42:04.331Z,100.00
2022-10-17T08:44:50.459Z,100.00
2022-10-17T08:47:29.366Z,100.00
2022-10-17T08:50:05.651Z,100.00
2022-10-17T08:52:42.676Z,100.00
2022-10-17T08:57:52.226Z,100.00
2022-10-17T09:00:27.494Z,100.00
2022-10-17T09:03:15.528Z,100.00
2022-10-17T09:05:54.236Z,100.00
2022-10-17T09:08:41.969Z,100.00
2022-10-17T09:11:29.677Z,100.00
2022-10-17T09:14:16.883Z,100.00
2022-10-17T09:17:04.274Z,100.00
2022-10-17T09:19:40.964Z,100.00
2022-10-17T09:22:18.115Z,100.00
2022-10-17T09:24:55.571Z,100.00
2022-10-17T09:27:36.465Z,100.00
2022-10-17T09:30:46.280Z,100.00
2022-10-17T09:33:35.327Z,100.00
2022-10-17T09:36:19.223Z,100.00
2022-10-17T09:38:55.482Z,100.00
2022-10-17T09:41:50.279Z,100.00
2022-10-17T09:44:25.465Z,100.00
2022-10-17T09:47:09.157Z,100.00
2022-10-17T09:49:44.995Z,100.00
2022-10-17T09:52:21.692Z,100.00
2022-10-17T09:54:58.180Z,100.00
2022-10-17T09:57:55.106Z,100.00
2022-10-17T10:00:30.395Z,100.00
2022-10-17T10:03:17.454Z,100.00
2022-10-17T10:06:03.384Z,100.00
2022-10-17T10:08:38.952Z,100.00
2022-10-17T10:11:13.988Z,98.97
2022-10-17T10:13:50.160Z,98.56
2022-10-17T10:16:25.376Z,99.25
2022-10-17T10:18:58.677Z,99.96
2022-10-17T10:21:33.451Z,99.44
2022-10-17T10:24:14.233Z,100.00
2022-10-17T10:26:49.573Z,99.39
2022-10-17T10:29:30.801Z,98.68
2022-10-17T10:32:19.873Z,97.79
2022-10-17T10:34:56.681Z,97.25
2022-10-17T10:37:34.933Z,98.67
2022-10-17T10:40:17.966Z,99.22
2022-10-17T10:42:53.067Z,98.38
2022-10-17T10:45:47.965Z,97.17
2022-10-17T10:48:23.611Z,94.28
2022-10-17T10:51:00.580Z,90.64
2022-10-17T10:53:44.139Z,89.50
2022-10-17T10:56:21.878Z,88.94
2022-10-17T10:58:59.704Z,88.58
2022-10-17T11:01:40.679Z,87.96
2022-10-17T11:04:28.560Z,87.99
2022-10-17T11:07:05.938Z,89.18
2022-10-17T11:09:50.922Z,88.50
2022-10-17T11:12:28.845Z,90.69
2022-10-17T11:15:09.828Z,89.60
2022-10-17T11:17:54.072Z,88.71
2022-10-17T11:20:34.500Z,89.13
2022-10-17T11:23:19.956Z,90.15
2022-10-17T11:25:58.326Z,85.95
2022-10-17T11:28:31.908Z,85.89
2022-10-17T11:31:09.009Z,87.38
2022-10-17T11:33:48.175Z,84.93
2022-10-17T11:36:25.386Z,84.15
2022-10-17T11:39:02.707Z,84.00
2022-10-17T11:41:43.000Z,83.84
2022-10-17T11:44:23.593Z,87.30
2022-10-17T11:47:01.119Z,86.57
2022-10-17T11:49:41.040Z,83.09
2022-10-17T11:52:54.919Z,86.48
2022-10-17T11:55:24.843Z,88.78
2022-10-17T11:58:25.301Z,86.36
2022-10-17T12:01:08.624Z,86.38
2022-10-17T12:03:55.267Z,82.13
2022-10-17T12:06:44.067Z,84.36
2022-10-17T12:09:25.330Z,83.50
2022-10-17T12:12:00.670Z,87.43
2022-10-17T12:14:42.894Z,86.52
2022-10-17T12:17:30.642Z,84.88
2022-10-17T12:20:28.399Z,82.04
2022-10-17T12:23:21.159Z,81.25
2022-10-17T12:25:59.649Z,80.00
2022-10-17T12:28:44.830Z,77.16
2022-10-17T12:31:32.493Z,78.86
2022-10-17T12:34:06.950Z,79.65
2022-10-17T12:36:40.300Z,81.27
2022-10-17T12:39:46.188Z,82.19
2022-10-17T12:42:46.701Z,79.88
2022-10-17T12:45:51.427Z,79.50
2022-10-17T12:49:01.925Z,80.28
2022-10-17T12:52:16.664Z,79.68
2022-10-17T12:55:07.076Z,75.49
2022-10-17T12:57:58.633Z,77.37
2022-10-17T13:00:36.880Z,80.88
2022-10-17T13:03:15.184Z,83.13
2022-10-17T13:05:52.415Z,80.59
2022-10-17T13:08:29.525Z,82.65
2022-10-17T13:11:03.868Z,83.53
2022-10-17T13:13:42.823Z,84.78
2022-10-17T13:16:29.415Z,84.05
2022-10-17T13:19:04.516Z,82.02
2022-10-17T13:21:38.682Z,82.21
2022-10-17T13:24:30.282Z,81.97
2022-10-17T13:27:04.042Z,80.38
2022-10-17T13:29:44.962Z,79.04
2022-10-17T13:32:17.998Z,79.08
2022-10-17T13:35:06.526Z,82.31
2022-10-17T13:37:43.533Z,80.58
2022-10-17T13:40:40.911Z,77.58
2022-10-17T13:43:17.965Z,76.76
2022-10-17T13:45:53.010Z,77.07
2022-10-17T13:48:29.485Z,75.98
2022-10-17T13:51:08.947Z,73.63
2022-10-17T13:53:44.922Z,76.32
2022-10-17T13:56:28.360Z,76.61
2022-10-17T13:59:10.805Z,74.68
2022-10-17T14:01:43.903Z,75.78
2022-10-17T14:04:20.174Z,74.26
2022-10-17T14:06:54.022Z,73.53
2022-10-17T14:09:31.295Z,71.00
2022-10-17T14:12:12.815Z,70.83
2022-10-17T14:15:09.649Z,72.59
2022-10-17T14:17:45.162Z,70.59
2022-10-17T14:21:07.787Z,68.94
2022-10-17T14:23:31.053Z,68.72
2022-10-17T14:26:15.104Z,68.75
2022-10-17T14:28:50.064Z,67.42
2022-10-17T14:31:27.046Z,69.47
2022-10-17T14:34:02.019Z,68.30
2022-10-17T14:36:39.055Z,69.68
2022-10-17T14:39:20.796Z,70.46
2022-10-17T14:41:57.212Z,67.62
2022-10-17T14:44:33.709Z,67.23
2022-10-17T14:47:41.569Z,67.58
2022-10-17T14:50:23.228Z,67.53
2022-10-17T14:53:04.895Z,70.27
2022-10-17T14:55:39.601Z,69.51
2022-10-17T14:58:25.848Z,68.23
2022-10-17T15:01:00.156Z,69.76
2022-10-17T15:03:32.951Z,69.28
2022-10-17T15:06:19.350Z,66.38
2022-10-17T15:08:52.119Z,65.61
2022-10-17T15:11:25.063Z,61.91
2022-10-17T15:13:59.422Z,60.19
2022-10-17T15:16:33.538Z,60.24
2022-10-17T15:19:06.332Z,60.71
2022-10-17T15:21:43.234Z,60.17
2022-10-17T15:24:17.495Z,63.40
2022-10-17T15:26:50.522Z,64.91
2022-10-17T15:29:24.682Z,66.81
2022-10-17T15:31:57.448Z,68.90
2022-10-17T15:34:30.197Z,69.48
2022-10-17T15:37:03.106Z,68.95
2022-10-17T15:39:35.858Z,71.04
2022-10-17T15:42:12.689Z,72.89
2022-10-17T15:44:49.664Z,72.39
2022-10-17T15:47:26.514Z,74.05
2022-10-17T15:49:59.704Z,76.42
2022-10-17T15:52:32.576Z,77.59
2022-10-17T15:55:05.879Z,78.60
2022-10-17T15:57:42.486Z,79.41
2022-10-17T16:00:19.420Z,82.43
2022-10-17T16:02:52.298Z,81.15
2022-10-17T16:05:26.943Z,82.95
2022-10-17T16:07:59.741Z,83.19
2022-10-17T16:10:40.805Z,82.50
2022-10-17T16:13:18.996Z,83.28
2022-10-17T16:15:53.899Z,83.23
2022-10-17T16:18:26.809Z,84.04
2022-10-17T16:20:59.789Z,83.93
2022-10-17T16:23:32.711Z,84.33
2022-10-17T16:26:05.660Z,84.29
2022-10-17T16:28:41.331Z,84.07
2022-10-17T16:31:22.837Z,85.44
2022-10-17T16:33:57.125Z,86.60
2022-10-17T16:36:30.010Z,86.45
2022-10-17T16:39:02.837Z,87.51
2022-10-17T16:41:37.834Z,87.77
2022-10-17T16:44:14.513Z,88.04
2022-10-17T16:46:48.715Z,88.37
2022-10-17T16:49:21.560Z,88.43
2022-10-17T16:51:54.340Z,88.83
2022-10-17T16:54:27.235Z,89.63
2022-10-17T16:56:59.994Z,90.11
2022-10-17T16:59:32.792Z,90.35
2022-10-17T17:02:07.232Z,90.95
2022-10-17T17:04:40.130Z,90.96
2022-10-17T17:07:12.978Z,90.61
2022-10-17T17:09:45.983Z,90.40
2022-10-17T17:12:19.049Z,90.86
2022-10-17T17:14:51.860Z,90.85
2022-10-17T17:17:44.322Z,91.13
2022-10-17T17:20:19.163Z,91.40
2022-10-17T17:22:52.391Z,91.86
2022-10-17T17:25:25.388Z,92.07
2022-10-17T17:27:58.191Z,91.63
2022-10-17T17:30:31.061Z,92.16
2022-10-17T17:33:05.196Z,92.47
2022-10-17T17:35:40.116Z,91.75
2022-10-17T17:38:13.013Z,91.45
2022-10-17T17:40:50.565Z,91.49
2022-10-17T17:43:24.343Z,91.68
2022-10-17T17:45:57.413Z,91.67
2022-10-17T17:48:31.701Z,91.62
2022-10-17T17:51:05.341Z,92.17
2022-10-17T17:53:39.251Z,93.93
2022-10-17T17:56:14.236Z,95.40
2022-10-17T17:58:48.855Z,96.51
2022-10-17T18:01:23.660Z,97.04
2022-10-17T18:04:00.003Z,97.98
2022-10-17T18:06:33.060Z,98.95
2022-10-17T18:09:07.381Z,99.75
2022-10-17T18:11:40.194Z,100.00
2022-10-17T18:14:13.689Z,100.00
2022-10-17T18:16:46.484Z,100.00
2022-10-17T18:19:22.207Z,100.00
2022-10-17T18:21:55.065Z,100.00
2022-10-17T18:24:27.889Z,100.00
2022-10-17T18:27:01.583Z,100.00
2022-10-17T18:29:34.459Z,100.00
2022-10-17T18:32:07.258Z,100.00
2022-10-17T18:34:41.818Z,100.00
2022-10-17T18:37:14.608Z,100.00
2022-10-17T18:39:51.480Z,100.00
2022-10-17T18:42:24.740Z,100.00
2022-10-17T18:44:57.530Z,100.00
2022-10-17T18:47:30.493Z,100.00
2022-10-17T18:50:05.113Z,100.00
2022-10-17T18:52:37.880Z,100.00
2022-10-17T18:55:10.886Z,100.00
2022-10-17T18:57:43.756Z,100.00
2022-10-17T19:00:17.501Z,100.00
2022-10-17T19:02:51.948Z,100.00
2022-10-17T19:05:26.437Z,100.00
2022-10-17T19:07:59.570Z,100.00
2022-10-17T19:10:33.773Z,100.00
2022-10-17T19:13:06.780Z,100.00
2022-10-17T19:15:39.906Z,100.00
2022-10-17T19:18:12.730Z,100.00
2022-10-17T19:20:47.108Z,100.00
2022-10-17T19:23:19.889Z,100.00
2022-10-17T19:25:54.154Z,100.00
2022-10-17T19:28:28.933Z,100.00
2022-10-17T19:31:02.082Z,100.00
2022-10-17T19:33:35.624Z,100.00
2022-10-17T19:36:12.221Z,100.00
2022-10-17T19:38:45.238Z,100.00
2022-10-17T19:41:18.027Z,100.00
2022-10-17T19:43:51.110Z,100.00
2022-10-17T19:46:27.603Z,100.00
2022-10-17T19:49:00.659Z,100.00
2022-10-17T19:51:34.927Z,100.00
2022-10-17T19:54:07.773Z,100.00
2022-10-17T19:56:43.404Z,100.00
2022-10-17T19:59:18.073Z,100.00
2022-10-17T20:01:51.045Z,100.00
2022-10-17T20:04:24.100Z,100.00
2022-10-17T20:07:00.022Z,100.00
2022-10-17T20:09:32.819Z,100.00
2022-10-17T20:12:05.650Z,100.00
2022-10-17T20:14:41.010Z,100.00
2022-10-17T20:17:14.052Z,100.00
2022-10-17T20:19:47.139Z,100.00
2022-10-17T20:22:21.940Z,100.00
2022-10-17T20:24:54.713Z,100.00
2022-10-17T20:27:27.889Z,100.00
2022-10-17T20:30:02.022Z,100.00
2022-10-17T20:32:39.649Z,100.00
2022-10-17T20:35:12.693Z,100.00
2022-10-17T20:37:46.954Z,100.00
2022-10-17T20:40:34.732Z,100.00
2022-10-17T20:43:09.516Z,100.00
2022-10-17T20:45:51.757Z,100.00
2022-10-17T20:48:25.273Z,100.00
2022-10-17T20:50:58.130Z,100.00
2022-10-17T20:53:37.074Z,100.00
2022-10-17T20:56:18.261Z,100.00
2022-10-17T20:58:52.659Z,100.00
2022-10-17T21:01:26.915Z,100.00
2022-10-17T21:04:10.549Z,100.00
2022-10-17T21:06:51.323Z,100.00
2022-10-17T21:09:25.605Z,100.00
2022-10-17T21:11:58.632Z,100.00
2022-10-17T21:14:31.916Z,100.00
2022-10-17T21:17:05.695Z,100.00
2022-10-17T21:19:38.564Z,100.00
2022-10-17T21:22:11.357Z,100.00
2022-10-17T21:24:45.533Z,100.00
2022-10-17T21:27:20.468Z,100.00
2022-10-17T21:29:53.243Z,100.00
2022-10-17T21:32:40.376Z,100.00
2022-10-17T21:35:18.988Z,100.00
2022-10-17T21:37:52.504Z,100.00
2022-10-17T21:40:26.690Z,100.00
2022-10-17T21:42:59.584Z,100.00
2022-10-17T21:45:32.614Z,100.00
2022-10-17T21:48:13.594Z,100.00
2022-10-17T21:50:46.626Z,100.00
2022-10-17T21:53:19.426Z,100.00
2022-10-17T21:55:53.622Z,100.00
2022-10-17T21:58:26.417Z,100.00
2022-10-17T22:01:05.026Z,100.00
2022-10-17T22:03:42.687Z,100.00
2022-10-17T22:09:16.499Z,100.00
2022-10-17T22:11:52.997Z,100.00
2022-10-17T22:14:28.177Z,100.00
2022-10-17T22:17:01.459Z,100.00
2022-10-17T22:19:34.284Z,100.00
2022-10-17T22:22:07.128Z,100.00
2022-10-17T22:24:39.994Z,100.00
2022-10-17T22:27:14.308Z,100.00
2022-10-17T22:29:47.093Z,100.00
2022-10-17T22:32:22.378Z,100.00
2022-10-17T22:34:55.527Z,100.00
2022-10-17T22:37:28.472Z,100.00
2022-10-17T22:40:01.424Z,100.00
2022-10-17T22:42:35.586Z,100.00
2022-10-17T22:45:09.110Z,100.00
2022-10-17T22:47:41.892Z,100.00
2022-10-17T22:50:14.827Z,100.00
2022-10-17T22:52:47.882Z,100.00
2022-10-17T22:55:20.743Z,100.00
2022-10-17T22:57:54.890Z,100.00
2022-10-17T23:03:01.622Z,100.00
2022-10-17T23:05:34.406Z,100.00
2022-10-17T23:08:07.487Z,100.00
2022-10-17T23:10:41.441Z,100.00
2022-10-17T23:13:16.540Z,100.00
2022-10-17T23:15:52.768Z,100.00
2022-10-17T23:18:27.246Z,100.00
2022-10-17T23:21:00.151Z,100.00
2022-10-17T23:23:32.955Z,100.00
2022-10-17T23:26:07.858Z,100.00
2022-10-17T23:28:43.018Z,100.00
2022-10-17T23:31:18.018Z,100.00
2022-10-17T23:33:51.313Z,100.00
2022-10-17T23:36:24.265Z,100.00
2022-10-17T23:38:58.551Z,100.00
2022-10-17T23:41:31.574Z,100.00
2022-10-17T23:44:06.269Z,100.00
2022-10-17T23:46:39.520Z,100.00
2022-10-17T23:49:12.534Z,100.00
2022-10-17T23:51:45.339Z,100.00
2022-10-17T23:54:18.195Z,100.00
2022-10-17T23:56:51.120Z,100.00
2022-10-17T23:59:25.409Z,100.00
